Time;durP1;ratioP1;P1;durP2;ratioP2;P2;SDS_P1;SDS_P2;PMS_P1;PMS_P2;Temp;Humidity;BMP_temperature;BMP_pressure;BME280_temperature;BME280_humidity;BME280_pressure;Samples;Min_cycle;Max_cycle;Signal;HPM_P1;HPM_P2
2022/09/28 00:00:26;;;;;;;12.75;5.47;;;;;;;;;;4988546;28;20044;-67
2022/09/28 00:02:56;;;;;;;11.35;5.60;;;;;;;;;;4988555;28;20349;-66
2022/09/28 00:05:22;;;;;;;11.35;5.82;;;;;;;;;;4989213;28;20477;-66
2022/09/28 00:07:48;;;;;;;9.90;5.90;;;;;;;;;;4988545;28;20036;-66
2022/09/28 00:10:14;;;;;;;12.10;5.85;;;;;;;;;;4997343;28;20532;-67
2022/09/28 00:12:40;;;;;;;10.00;5.60;;;;;;;;;;5008255;28;20320;-67
2022/09/28 00:15:06;;;;;;;9.48;4.97;;;;;;;;;;5007851;28;20028;-67
2022/09/28 00:17:32;;;;;;;11.55;5.60;;;;;;;;;;4989897;28;20032;-67
2022/09/28 00:19:57;;;;;;;11.80;6.13;;;;;;;;;;5007883;28;20509;-67
2022/09/28 00:22:23;;;;;;;8.60;5.63;;;;;;;;;;5007927;28;20037;-66
2022/09/28 00:24:48;;;;;;;10.68;5.85;;;;;;;;;;5007839;28;20439;-67
2022/09/28 00:27:13;;;;;;;10.27;5.30;;;;;;;;;;5010009;28;20426;-67
2022/09/28 00:29:39;;;;;;;12.73;5.43;;;;;;;;;;5007889;28;20490;-67
2022/09/28 00:32:08;;;;;;;10.65;5.03;;;;;;;;;;5007590;28;20453;-67
2022/09/28 00:34:34;;;;;;;;;;;;;;;;;;4991054;28;20381;-67
2022/09/28 00:37:01;;;;;;;11.73;5.40;;;;;;;;;;4989980;28;19970;-67
2022/09/28 00:39:26;;;;;;;9.70;5.50;;;;;;;;;;5007966;28;20403;-67
2022/09/28 00:41:52;;;;;;;10.38;5.75;;;;;;;;;;5007557;28;20316;-67
2022/09/28 00:44:24;;;;;;;10.15;5.47;;;;;;;;;;5007526;28;20451;-66
2022/09/28 00:46:52;;;;;;;11.13;5.95;;;;;;;;;;5007630;28;20374;-66
2022/09/28 00:49:20;;;;;;;13.20;6.13;;;;;;;;;;5007851;28;20412;-67
2022/09/28 00:51:46;;;;;;;18.02;5.72;;;;;;;;;;5008008;28;20474;-67
2022/09/28 00:54:13;;;;;;;19.10;5.82;;;;;;;;;;4989441;28;20570;-67
2022/09/28 00:56:42;;;;;;;10.90;5.68;;;;;;;;;;4989589;28;20451;-67
2022/09/28 00:59:08;;;;;;;9.43;5.25;;;;;;;;;;5007265;28;20386;-67
2022/09/28 01:01:33;;;;;;;10.50;5.25;;;;;;;;;;4981881;28;20130;-67
2022/09/28 01:04:00;;;;;;;9.05;4.88;;;;;;;;;;4978297;28;20440;-67
2022/09/28 01:06:29;;;;;;;9.50;5.63;;;;;;;;;;4987732;28;20363;-66
2022/09/28 01:08:57;;;;;;;8.50;4.65;;;;;;;;;;4969867;28;20029;-66
2022/09/28 01:11:23;;;;;;;10.40;4.80;;;;;;;;;;4951919;28;20103;-67
2022/09/28 01:13:49;;;;;;;11.57;5.03;;;;;;;;;;4950042;28;20116;-67
2022/09/28 01:16:20;;;;;;;10.85;5.10;;;;;;;;;;4967924;28;20321;-67
2022/09/28 01:18:57;;;;;;;13.07;5.40;;;;;;;;;;4967804;28;20120;-66
2022/09/28 01:21:23;;;;;;;9.65;4.95;;;;;;;;;;4967570;28;20511;-67
2022/09/28 01:24:10;;;;;;;9.55;4.93;;;;;;;;;;4950217;28;20425;-67
2022/09/28 01:26:46;;;;;;;11.20;4.72;;;;;;;;;;4949923;28;20361;-67
2022/09/28 01:29:22;;;;;;;10.98;5.00;;;;;;;;;;4967532;28;20513;-67
2022/09/28 01:31:58;;;;;;;9.57;4.85;;;;;;;;;;4968018;28;20044;-67
2022/09/28 01:34:27;;;;;;;10.65;4.97;;;;;;;;;;4950467;28;20416;-67
2022/09/28 01:36:55;;;;;;;8.02;4.38;;;;;;;;;;4967497;28;20437;-67
2022/09/28 01:39:25;;;;;;;10.70;4.80;;;;;;;;;;4950494;28;20448;-66
2022/09/28 01:41:52;;;;;;;11.20;5.22;;;;;;;;;;4952738;28;20460;-67
2022/09/28 01:44:19;;;;;;;9.45;4.40;;;;;;;;;;4953609;28;20030;-67
2022/09/28 01:46:47;;;;;;;7.60;4.63;;;;;;;;;;4953623;28;20467;-67
2022/09/28 01:49:22;;;;;;;10.85;5.18;;;;;;;;;;4953441;28;20513;-66
2022/09/28 01:52:14;;;;;;;9.82;4.97;;;;;;;;;;4954011;28;20305;-67
2022/09/28 01:55:05;;;;;;;13.05;4.90;;;;;;;;;;4964126;28;20470;-67
2022/09/28 01:57:38;;;;;;;9.25;4.78;;;;;;;;;;4960793;28;20460;-67
2022/09/28 02:00:12;;;;;;;8.50;5.05;;;;;;;;;;4972569;28;20535;-67
2022/09/28 02:02:59;;;;;;;8.70;4.88;;;;;;;;;;4953518;28;20352;-67
2022/09/28 02:05:36;;;;;;;8.75;4.63;;;;;;;;;;4970951;28;20444;-66
2022/09/28 02:08:03;;;;;;;11.10;5.30;;;;;;;;;;4970926;28;20453;-68
2022/09/28 02:10:34;;;;;;;9.30;4.60;;;;;;;;;;4981581;28;20364;-67
2022/09/28 02:13:05;;;;;;;12.13;5.15;;;;;;;;;;4973491;28;20415;-67
2022/09/28 02:15:43;;;;;;;7.75;4.50;;;;;;;;;;4972479;28;20463;-67
2022/09/28 02:18:09;;;;;;;9.55;4.55;;;;;;;;;;4991233;28;20481;-67
2022/09/28 02:20:35;;;;;;;7.93;4.88;;;;;;;;;;4990412;28;20455;-66
2022/09/28 02:23:01;;;;;;;8.20;5.05;;;;;;;;;;4972525;28;20447;-67
2022/09/28 02:25:37;;;;;;;10.10;5.25;;;;;;;;;;4972773;28;20418;-66
2022/09/28 02:28:14;;;;;;;9.73;5.15;;;;;;;;;;4990265;28;20336;-67
2022/09/28 02:30:42;;;;;;;9.20;5.43;;;;;;;;;;4973283;28;20418;-67
2022/09/28 02:33:14;;;;;;;8.48;5.10;;;;;;;;;;4972271;28;20094;-67
2022/09/28 02:35:41;;;;;;;8.25;4.70;;;;;;;;;;4972337;28;20340;-67
2022/09/28 02:38:06;;;;;;;8.75;4.65;;;;;;;;;;4972741;28;20450;-67
2022/09/28 02:40:33;;;;;;;9.38;5.00;;;;;;;;;;4971868;28;20366;-67
2022/09/28 02:43:20;;;;;;;9.55;4.65;;;;;;;;;;4990108;28;20490;-67
2022/09/28 02:46:10;;;;;;;7.50;5.10;;;;;;;;;;4971809;28;20527;-67
2022/09/28 02:49:06;;;;;;;7.43;3.88;;;;;;;;;;4989869;28;20036;-66
2022/09/28 02:51:52;;;;;;;8.10;4.38;;;;;;;;;;4989128;28;20456;-68
2022/09/28 02:54:25;;;;;;;7.22;4.60;;;;;;;;;;4990135;28;20364;-68
2022/09/28 02:57:01;;;;;;;9.82;4.40;;;;;;;;;;4989975;28;20375;-68
2022/09/28 02:59:41;;;;;;;8.93;4.22;;;;;;;;;;4972290;28;20427;-67
2022/09/28 03:02:18;;;;;;;9.00;4.45;;;;;;;;;;4971790;28;20451;-67
2022/09/28 03:05:06;;;;;;;6.82;3.75;;;;;;;;;;4972093;28;20378;-67
2022/09/28 03:07:35;;;;;;;6.03;3.65;;;;;;;;;;4971749;28;20399;-67
2022/09/28 03:10:02;;;;;;;;;;;;;;;;;;4989538;28;20337;-67
2022/09/28 03:12:28;;;;;;;6.57;3.78;;;;;;;;;;4989464;28;19974;-67
2022/09/28 03:15:06;;;;;;;7.55;4.03;;;;;;;;;;4971839;28;20044;-67
2022/09/28 03:17:31;;;;;;;6.25;3.42;;;;;;;;;;4989540;28;20456;-67
2022/09/28 03:19:57;;;;;;;7.97;3.55;;;;;;;;;;4990022;28;20505;-67
2022/09/28 03:22:22;;;;;;;6.45;4.07;;;;;;;;;;4989162;28;20355;-67
2022/09/28 03:24:47;;;;;;;7.47;3.33;;;;;;;;;;4989968;28;20334;-67
2022/09/28 03:27:13;;;;;;;7.40;3.45;;;;;;;;;;4989460;28;20432;-67
2022/09/28 03:29:39;;;;;;;6.72;3.45;;;;;;;;;;4989249;28;20507;-67
2022/09/28 03:32:04;;;;;;;4.93;3.65;;;;;;;;;;4971130;28;20455;-67
2022/09/28 03:34:30;;;;;;;9.63;3.63;;;;;;;;;;4991077;28;20416;-68
2022/09/28 03:36:55;;;;;;;5.65;3.17;;;;;;;;;;4989168;28;20037;-67
2022/09/28 03:39:20;;;;;;;5.60;3.10;;;;;;;;;;4988900;28;20047;-67
2022/09/28 03:41:46;;;;;;;7.85;4.00;;;;;;;;;;4989591;28;20372;-67
2022/09/28 03:44:11;;;;;;;6.32;3.25;;;;;;;;;;4990448;28;20503;-67
2022/09/28 03:46:37;;;;;;;5.82;3.08;;;;;;;;;;4988782;28;20472;-67
2022/09/28 03:49:03;;;;;;;8.52;4.18;;;;;;;;;;4988871;28;20504;-67
2022/09/28 03:51:29;;;;;;;7.53;3.88;;;;;;;;;;4990783;28;20444;-67
2022/09/28 03:53:54;;;;;;;7.85;3.35;;;;;;;;;;4988735;28;20339;-67
2022/09/28 03:56:19;;;;;;;7.47;3.78;;;;;;;;;;4988754;28;20116;-67
2022/09/28 03:58:45;;;;;;;5.82;3.42;;;;;;;;;;4970594;28;20386;-67
2022/09/28 04:01:12;;;;;;;10.00;4.03;;;;;;;;;;4989126;28;20403;-67
2022/09/28 04:03:37;;;;;;;5.70;3.40;;;;;;;;;;4971319;28;20455;-67
2022/09/28 04:06:03;;;;;;;7.35;3.80;;;;;;;;;;4988622;28;20521;-67
2022/09/28 04:08:28;;;;;;;7.60;3.88;;;;;;;;;;4970812;28;20452;-67
2022/09/28 04:10:58;;;;;;;5.60;3.72;;;;;;;;;;4988078;28;20533;-67
2022/09/28 04:13:24;;;;;;;5.78;2.92;;;;;;;;;;4970693;28;20414;-67
2022/09/28 04:15:55;;;;;;;6.20;4.00;;;;;;;;;;4988466;28;20439;-67
2022/09/28 04:18:20;;;;;;;4.75;3.20;;;;;;;;;;4970485;28;20344;-67
2022/09/28 04:20:46;;;;;;;7.00;3.50;;;;;;;;;;4988303;28;20371;-67
2022/09/28 04:23:13;;;;;;;6.10;3.63;;;;;;;;;;4989892;28;20415;-67
2022/09/28 04:25:39;;;;;;;8.13;3.55;;;;;;;;;;4988155;28;20355;-67
2022/09/28 04:30:48;;;;;;;7.45;3.38;;;;;;;;;;4989317;28;20395;-67
2022/09/28 04:33:13;;;;;;;4.78;3.33;;;;;;;;;;4988353;28;20383;-67
2022/09/28 04:35:39;;;;;;;5.97;3.00;;;;;;;;;;4970180;28;20392;-67
2022/09/28 04:38:04;;;;;;;8.80;4.20;;;;;;;;;;4989207;28;20325;-67
2022/09/28 04:40:32;;;;;;;8.35;4.00;;;;;;;;;;4987682;28;20049;-67
2022/09/28 04:42:57;;;;;;;7.10;3.47;;;;;;;;;;4987617;28;20029;-67
2022/09/28 04:45:25;;;;;;;5.78;3.45;;;;;;;;;;4988344;28;20568;-67
2022/09/28 04:47:50;;;;;;;5.93;2.95;;;;;;;;;;4970114;28;20519;-67
2022/09/28 04:50:16;;;;;;;6.65;3.50;;;;;;;;;;4969831;28;20343;-67
2022/09/28 04:52:41;;;;;;;6.20;3.22;;;;;;;;;;4969956;28;20455;-67
2022/09/28 04:55:10;;;;;;;7.40;3.00;;;;;;;;;;4989128;28;20475;-67
2022/09/28 04:57:35;;;;;;;11.65;4.50;;;;;;;;;;4970044;28;20033;-67
2022/09/28 05:00:01;;;;;;;8.10;3.33;;;;;;;;;;4970283;28;20420;-67
2022/09/28 05:02:28;;;;;;;9.90;3.97;;;;;;;;;;4987866;28;20324;-67
2022/09/28 05:04:55;;;;;;;5.65;2.65;;;;;;;;;;4987532;28;20321;-67
2022/09/28 05:07:20;;;;;;;6.57;3.22;;;;;;;;;;4987536;28;20193;-67
2022/09/28 05:09:46;;;;;;;8.93;3.92;;;;;;;;;;4964613;28;20041;-67
2022/09/28 05:12:11;;;;;;;11.57;3.45;;;;;;;;;;4967809;28;20380;-67
2022/09/28 05:14:36;;;;;;;12.32;3.70;;;;;;;;;;4967259;28;20118;-67
2022/09/28 05:17:02;;;;;;;6.35;2.83;;;;;;;;;;4967217;28;20422;-66
2022/09/28 05:19:29;;;;;;;6.43;3.28;;;;;;;;;;4967721;28;20519;-66
2022/09/28 05:21:56;;;;;;;5.47;2.70;;;;;;;;;;4967572;28;20460;-67
2022/09/28 05:24:22;;;;;;;7.32;2.92;;;;;;;;;;4967639;28;20468;-67
2022/09/28 05:26:47;;;;;;;6.15;3.50;;;;;;;;;;4949972;28;20440;-67
2022/09/28 05:29:13;;;;;;;10.57;4.40;;;;;;;;;;4967293;28;20345;-66
2022/09/28 05:31:38;;;;;;;6.63;3.30;;;;;;;;;;4968651;28;20095;-66
2022/09/28 05:34:03;;;;;;;8.68;3.08;;;;;;;;;;4967708;28;20466;-67
2022/09/28 05:36:31;;;;;;;7.78;2.50;;;;;;;;;;4967247;28;20353;-67
2022/09/28 05:38:57;;;;;;;9.70;3.53;;;;;;;;;;4967583;28;20445;-67
2022/09/28 05:41:22;;;;;;;5.72;2.88;;;;;;;;;;4949543;28;20459;-67
2022/09/28 05:43:50;;;;;;;4.45;2.38;;;;;;;;;;4967626;28;20410;-67
2022/09/28 05:46:15;;;;;;;4.25;2.00;;;;;;;;;;4950761;28;20447;-67
2022/09/28 05:48:41;;;;;;;3.83;1.98;;;;;;;;;;4967304;28;20500;-67
2022/09/28 05:51:06;;;;;;;7.35;3.20;;;;;;;;;;4967482;28;20029;-67
2022/09/28 05:53:31;;;;;;;9.77;2.25;;;;;;;;;;4967806;28;20440;-67
2022/09/28 05:55:58;;;;;;;6.10;2.55;;;;;;;;;;4969418;28;20376;-67
2022/09/28 05:58:23;;;;;;;4.22;2.53;;;;;;;;;;4967450;28;20372;-67
2022/09/28 06:00:55;;;;;;;6.38;2.72;;;;;;;;;;4950043;28;20403;-67
2022/09/28 06:03:21;;;;;;;5.38;2.22;;;;;;;;;;4949423;28;20356;-67
2022/09/28 06:05:46;;;;;;;4.55;2.15;;;;;;;;;;4967242;28;20029;-67
2022/09/28 06:08:12;;;;;;;5.90;2.75;;;;;;;;;;4967177;28;20391;-67
2022/09/28 06:10:37;;;;;;;4.78;2.50;;;;;;;;;;4979086;28;20474;-67
2022/09/28 06:13:03;;;;;;;9.02;2.22;;;;;;;;;;4987276;28;20021;-67
2022/09/28 06:15:30;;;;;;;6.25;2.20;;;;;;;;;;4968808;28;20535;-67
2022/09/28 06:18:04;;;;;;;3.35;1.95;;;;;;;;;;4969200;28;20509;-66
2022/09/28 06:20:35;;;;;;;3.95;1.95;;;;;;;;;;4987000;28;20041;-66
2022/09/28 06:23:00;;;;;;;5.22;2.45;;;;;;;;;;4986624;28;20459;-67
2022/09/28 06:25:29;;;;;;;5.13;1.90;;;;;;;;;;4969016;28;20445;-66
2022/09/28 06:27:55;;;;;;;4.27;1.90;;;;;;;;;;4989552;28;20351;-66
2022/09/28 06:30:23;;;;;;;5.43;2.13;;;;;;;;;;4990247;28;20730;-66
2022/09/28 06:32:51;;;;;;;4.70;1.90;;;;;;;;;;4973299;28;20459;-67
2022/09/28 06:35:16;;;;;;;4.05;2.00;;;;;;;;;;4992148;28;20463;-67
2022/09/28 06:37:43;;;;;;;4.95;1.90;;;;;;;;;;4990647;28;20051;-67
2022/09/28 06:40:09;;;;;;;3.22;1.88;;;;;;;;;;4972254;28;20053;-67
2022/09/28 06:42:34;;;;;;;5.05;1.92;;;;;;;;;;4989792;28;20526;-67
2022/09/28 06:44:59;;;;;;;5.00;1.92;;;;;;;;;;4990036;28;20793;-67
2022/09/28 06:47:25;;;;;;;4.50;2.20;;;;;;;;;;4989693;28;20021;-67
2022/09/28 06:49:54;;;;;;;4.68;2.15;;;;;;;;;;4990088;28;20435;-66
2022/09/28 06:52:20;;;;;;;4.68;2.15;;;;;;;;;;4989827;28;20543;-67
2022/09/28 06:54:45;;;;;;;8.07;2.92;;;;;;;;;;4989631;28;20459;-66
2022/09/28 06:57:10;;;;;;;3.60;2.28;;;;;;;;;;4991302;28;20087;-67
2022/09/28 06:59:35;;;;;;;3.83;2.05;;;;;;;;;;4989459;28;20025;-67
2022/09/28 07:02:01;;;;;;;4.28;2.33;;;;;;;;;;4989676;28;20376;-66
2022/09/28 07:04:26;;;;;;;8.50;2.20;;;;;;;;;;4989688;28;20317;-67
2022/09/28 07:06:52;;;;;;;4.63;2.10;;;;;;;;;;4990641;28;20440;-67
2022/09/28 07:09:17;;;;;;;3.72;2.55;;;;;;;;;;4989747;28;20028;-66
2022/09/28 07:11:43;;;;;;;3.22;1.63;;;;;;;;;;4989620;28;20087;-67
2022/09/28 07:14:09;;;;;;;6.60;2.17;;;;;;;;;;4990947;28;20029;-67
2022/09/28 07:16:36;;;;;;;4.15;1.90;;;;;;;;;;4990795;28;20090;-67
2022/09/28 07:19:01;;;;;;;4.32;2.08;;;;;;;;;;4991455;28;20362;-67
2022/09/28 07:21:26;;;;;;;4.80;2.13;;;;;;;;;;4971360;28;20147;-67
2022/09/28 07:23:53;;;;;;;3.30;1.95;;;;;;;;;;4989318;28;20446;-67
2022/09/28 07:26:18;;;;;;;9.25;2.70;;;;;;;;;;4990070;28;20312;-67
2022/09/28 07:28:45;;;;;;;5.68;1.90;;;;;;;;;;4990253;28;20356;-67
2022/09/28 07:31:10;;;;;;;3.50;1.60;;;;;;;;;;4989387;28;20495;-67
2022/09/28 07:33:36;;;;;;;4.38;1.58;;;;;;;;;;4970992;28;20343;-67
2022/09/28 07:36:05;;;;;;;2.90;1.48;;;;;;;;;;4989879;28;20424;-67
2022/09/28 07:38:32;;;;;;;7.43;2.00;;;;;;;;;;4970512;28;20432;-67
2022/09/28 07:41:13;;;;;;;3.00;1.60;;;;;;;;;;4989303;28;20469;-66
2022/09/28 07:43:39;;;;;;;5.07;1.90;;;;;;;;;;4988697;28;20032;-67
2022/09/28 07:46:11;;;;;;;3.72;2.00;;;;;;;;;;4970731;28;20550;-67
2022/09/28 07:48:40;;;;;;;6.22;1.60;;;;;;;;;;4989192;28;20463;-67
2022/09/28 07:51:06;;;;;;;2.80;1.48;;;;;;;;;;4955515;28;20414;-67
2022/09/28 07:53:32;;;;;;;5.28;1.63;;;;;;;;;;4971085;28;20347;-67
2022/09/28 07:56:06;;;;;;;5.07;1.73;;;;;;;;;;4970673;28;20390;-67
2022/09/28 07:58:33;;;;;;;2.67;1.38;;;;;;;;;;4988550;28;20511;-67
2022/09/28 08:01:02;;;;;;;2.50;1.67;;;;;;;;;;4970626;28;20465;-67
2022/09/28 08:03:27;;;;;;;3.75;1.20;;;;;;;;;;4971020;28;20098;-67
2022/09/28 08:06:00;;;;;;;3.30;1.88;;;;;;;;;;4988387;28;20025;-67
2022/09/28 08:08:27;;;;;;;4.75;1.50;;;;;;;;;;4988451;28;20375;-66
2022/09/28 08:10:53;;;;;;;2.97;1.35;;;;;;;;;;4956828;28;20538;-67
2022/09/28 08:13:18;;;;;;;1.92;1.27;;;;;;;;;;4968595;28;20464;-67
2022/09/28 08:15:47;;;;;;;2.28;1.10;;;;;;;;;;4951084;28;20460;-67
2022/09/28 08:18:12;;;;;;;4.85;1.35;;;;;;;;;;4951687;28;20413;-67
2022/09/28 08:23:22;;;;;;;2.30;1.38;;;;;;;;;;4968552;28;20425;-67
2022/09/28 08:25:48;;;;;;;4.15;1.27;;;;;;;;;;4968718;28;20375;-68
2022/09/28 08:28:17;;;;;;;4.82;1.60;;;;;;;;;;4950846;28;20379;-67
2022/09/28 08:30:43;;;;;;;2.03;1.05;;;;;;;;;;4951013;28;20499;-67
2022/09/28 08:33:13;;;;;;;4.43;1.20;;;;;;;;;;4950647;28;20453;-67
2022/09/28 08:35:40;;;;;;;1.50;1.08;;;;;;;;;;4951471;28;20428;-67
2022/09/28 08:38:06;;;;;;;3.20;1.17;;;;;;;;;;4950415;28;20364;-67
2022/09/28 08:40:40;;;;;;;3.58;1.10;;;;;;;;;;4968161;28;20112;-67
2022/09/28 08:43:18;;;;;;;3.97;1.40;;;;;;;;;;4950333;28;20060;-67
2022/09/28 08:45:44;;;;;;;2.22;1.00;;;;;;;;;;4950380;28;20468;-67
2022/09/28 08:51:13;;;;;;;1.65;0.93;;;;;;;;;;4968963;28;20390;-67
2022/09/28 08:53:47;;;;;;;3.67;1.38;;;;;;;;;;4951367;28;21641;-67
2022/09/28 08:56:38;;;;;;;2.15;1.52;;;;;;;;;;4950193;28;20387;-67
2022/09/28 08:59:10;;;;;;;1.58;1.00;;;;;;;;;;4956920;28;20088;-67
2022/09/28 09:01:45;;;;;;;4.15;1.30;;;;;;;;;;4968603;28;20483;-67
2022/09/28 09:04:11;;;;;;;1.70;1.20;;;;;;;;;;4949876;28;20472;-67
2022/09/28 09:06:52;;;;;;;2.33;1.10;;;;;;;;;;4950017;28;20530;-67
2022/09/28 09:09:41;;;;;;;4.85;1.17;;;;;;;;;;4968049;28;20065;-67
2022/09/28 09:12:19;;;;;;;2.03;0.98;;;;;;;;;;4969518;28;20526;-67
2022/09/28 09:14:57;;;;;;;1.27;0.80;;;;;;;;;;4987799;28;20029;-67
2022/09/28 09:17:35;;;;;;;2.85;1.20;;;;;;;;;;4969179;28;20394;-67
2022/09/28 09:20:36;;;;;;;1.92;0.80;;;;;;;;;;4987363;28;20424;-67
2022/09/28 09:23:14;;;;;;;1.92;1.00;;;;;;;;;;4930725;28;20485;-67
2022/09/28 09:25:43;;;;;;;3.10;1.08;;;;;;;;;;4969862;28;20335;-67
2022/09/28 09:28:27;;;;;;;;;;;;;;;;;;4969852;28;20316;-67
2022/09/28 09:30:54;;;;;;;1.42;0.70;;;;;;;;;;4987091;28;20318;-67
2022/09/28 09:34:10;;;;;;;2.08;1.15;;;;;;;;;;4987433;28;20440;-67
2022/09/28 09:36:55;;;;;;;1.88;0.93;;;;;;;;;;4888077;29;20438;-67
2022/09/28 09:39:26;;;;;;;1.70;1.05;;;;;;;;;;4888418;29;20059;-67
2022/09/28 09:42:25;;;;;;;1.75;1.00;;;;;;;;;;4958399;28;20309;-67
2022/09/28 09:45:21;;;;;;;1.85;1.00;;;;;;;;;;4887427;28;20413;-66
2022/09/28 09:47:58;;;;;;;4.00;0.70;;;;;;;;;;4988209;28;20059;-67
2022/09/28 09:50:29;;;;;;;1.73;0.93;;;;;;;;;;4986999;28;20431;-67
2022/09/28 09:53:14;;;;;;;5.15;1.23;;;;;;;;;;4969636;28;20050;-66
2022/09/28 09:55:44;;;;;;;1.80;1.38;;;;;;;;;;4969226;28;20502;-66
2022/09/28 09:58:16;;;;;;;4.28;1.00;;;;;;;;;;4987623;28;20060;-66
2022/09/28 10:00:44;;;;;;;1.65;0.90;;;;;;;;;;4986963;28;20443;-67
2022/09/28 10:03:21;;;;;;;1.13;0.60;;;;;;;;;;4973607;28;20444;-67
2022/09/28 10:05:50;;;;;;;1.13;0.80;;;;;;;;;;4972767;28;20336;-67
2022/09/28 10:08:16;;;;;;;;;;;;;;;;;;4972932;28;20083;-67
2022/09/28 10:10:50;;;;;;;1.73;0.70;;;;;;;;;;4960959;28;20395;-67
2022/09/28 10:13:15;;;;;;;2.22;0.70;;;;;;;;;;4953736;28;20467;-67
2022/09/28 10:15:41;;;;;;;1.17;0.57;;;;;;;;;;4971468;28;20439;-67
2022/09/28 10:18:10;;;;;;;2.50;1.60;;;;;;;;;;4970696;28;20421;-67
2022/09/28 10:20:41;;;;;;;1.50;0.90;;;;;;;;;;4970882;28;20337;-67
2022/09/28 10:23:19;;;;;;;1.73;0.77;;;;;;;;;;4952796;28;20440;-67
2022/09/28 10:25:45;;;;;;;1.48;0.75;;;;;;;;;;4936735;28;20444;-67
2022/09/28 10:28:14;;;;;;;0.73;0.57;;;;;;;;;;4970595;28;20437;-67
2022/09/28 10:30:43;;;;;;;1.83;0.90;;;;;;;;;;4971943;28;20029;-67
2022/09/28 10:33:32;;;;;;;1.20;0.70;;;;;;;;;;4953734;28;20120;-67
2022/09/28 10:36:03;;;;;;;1.17;0.82;;;;;;;;;;4970427;28;20409;-67
2022/09/28 10:38:32;;;;;;;1.17;0.85;;;;;;;;;;4953050;28;20503;-67
2022/09/28 10:41:01;;;;;;;0.88;0.57;;;;;;;;;;4952814;28;20122;-68
2022/09/28 10:43:35;;;;;;;2.53;0.55;;;;;;;;;;4952521;28;20444;-67
2022/09/28 10:46:07;;;;;;;1.73;1.00;;;;;;;;;;4970416;28;20471;-67
2022/09/28 10:48:44;;;;;;;1.20;0.73;;;;;;;;;;4952331;28;20179;-67
2022/09/28 10:51:10;;;;;;;3.33;0.70;;;;;;;;;;4970284;28;20325;-67
2022/09/28 10:53:38;;;;;;;1.70;0.70;;;;;;;;;;4952398;28;20386;-67
2022/09/28 10:56:07;;;;;;;1.85;0.60;;;;;;;;;;4971364;28;20364;-67
2022/09/28 10:58:40;;;;;;;;;;;;;;;;;;4970704;28;20457;-67
2022/09/28 11:01:12;;;;;;;0.95;0.63;;;;;;;;;;4969690;28;20271;-67
2022/09/28 11:03:48;;;;;;;1.25;0.77;;;;;;;;;;4970207;28;20321;-67
2022/09/28 11:06:13;;;;;;;2.13;0.95;;;;;;;;;;4952031;28;20441;-68
2022/09/28 11:08:41;;;;;;;1.48;0.60;;;;;;;;;;4952133;28;20428;-67
2022/09/28 11:11:13;;;;;;;1.75;0.82;;;;;;;;;;4986071;28;20375;-67
2022/09/28 11:13:46;;;;;;;0.93;0.63;;;;;;;;;;4988444;28;20545;-67
2022/09/28 11:16:20;;;;;;;1.55;0.80;;;;;;;;;;4971598;28;20410;-67
2022/09/28 11:18:45;;;;;;;0.85;0.35;;;;;;;;;;4971955;28;20393;-67
2022/09/28 11:21:17;;;;;;;1.30;0.70;;;;;;;;;;4990018;28;20362;-67
2022/09/28 11:23:55;;;;;;;1.50;0.80;;;;;;;;;;4989367;28;20428;-67
2022/09/28 11:26:20;;;;;;;1.08;0.75;;;;;;;;;;4991450;28;20505;-67
2022/09/28 11:28:50;;;;;;;1.17;0.82;;;;;;;;;;4989125;28;20447;-67
2022/09/28 11:31:15;;;;;;;0.90;0.55;;;;;;;;;;4989417;28;20456;-67
2022/09/28 11:33:43;;;;;;;1.17;0.70;;;;;;;;;;4989024;28;20378;-67
2022/09/28 11:36:21;;;;;;;2.47;1.15;;;;;;;;;;4989018;28;20441;-67
2022/09/28 11:39:00;;;;;;;1.60;0.95;;;;;;;;;;4988980;28;20335;-67
2022/09/28 11:41:40;;;;;;;3.33;0.95;;;;;;;;;;4970645;28;20029;-67
2022/09/28 11:44:43;;;;;;;1.42;0.75;;;;;;;;;;4989292;28;20051;-67
2022/09/28 11:47:27;;;;;;;2.35;0.90;;;;;;;;;;4989004;28;20363;-67
2022/09/28 11:50:00;;;;;;;1.83;0.98;;;;;;;;;;4988941;28;20032;-67
2022/09/28 11:52:36;;;;;;;2.55;0.90;;;;;;;;;;4970670;28;20355;-67
2022/09/28 11:55:08;;;;;;;1.17;0.63;;;;;;;;;;4971358;28;20466;-67
2022/09/28 11:57:36;;;;;;;0.93;0.73;;;;;;;;;;4970752;28;20519;-67
2022/09/28 12:00:11;;;;;;;1.23;0.73;;;;;;;;;;4970632;28;20094;-69
2022/09/28 12:02:55;;;;;;;1.20;0.73;;;;;;;;;;4988392;28;20347;-67
2022/09/28 12:05:32;;;;;;;1.88;0.77;;;;;;;;;;4988499;28;20340;-67
2022/09/28 12:08:08;;;;;;;1.35;0.85;;;;;;;;;;4971634;28;20454;-67
2022/09/28 12:10:57;;;;;;;2.40;1.00;;;;;;;;;;4988373;28;20434;-68
2022/09/28 12:13:26;;;;;;;1.92;0.90;;;;;;;;;;4970405;28;20445;-67
2022/09/28 12:15:56;;;;;;;1.45;0.68;;;;;;;;;;4988385;28;20514;-67
2022/09/28 12:18:25;;;;;;;2.38;1.13;;;;;;;;;;4970363;28;20585;-67
2022/09/28 12:21:37;;;;;;;1.50;0.93;;;;;;;;;;4954316;28;20317;-67
2022/09/28 12:24:14;;;;;;;3.75;1.08;;;;;;;;;;4912869;28;20379;-67
2022/09/28 12:26:52;;;;;;;0.73;0.60;;;;;;;;;;4970035;28;20436;-67
2022/09/28 12:29:21;;;;;;;1.52;0.88;;;;;;;;;;4971359;28;20313;-67
2022/09/28 12:32:03;;;;;;;0.93;0.60;;;;;;;;;;4970283;28;20447;-67
2022/09/28 12:34:29;;;;;;;1.83;0.88;;;;;;;;;;4970221;28;20539;-67
2022/09/28 12:36:54;;;;;;;1.02;0.70;;;;;;;;;;4970037;28;20448;-67
2022/09/28 12:39:44;;;;;;;1.63;0.88;;;;;;;;;;4987835;28;20431;-67
2022/09/28 12:42:21;;;;;;;0.95;0.60;;;;;;;;;;4988244;28;20455;-67
2022/09/28 12:44:55;;;;;;;1.08;0.70;;;;;;;;;;4987745;28;20490;-67
2022/09/28 12:47:39;;;;;;;1.20;0.82;;;;;;;;;;4970841;28;20371;-67
2022/09/28 12:50:16;;;;;;;1.77;0.90;;;;;;;;;;4987719;28;20475;-68
2022/09/28 12:52:49;;;;;;;1.70;1.10;;;;;;;;;;4970098;28;20068;-67
2022/09/28 12:55:35;;;;;;;1.95;1.20;;;;;;;;;;4793966;28;5000937;-67
2022/09/28 12:58:38;;;;;;;1.48;0.90;;;;;;;;;;4987623;28;20506;-67
2022/09/28 13:01:25;;;;;;;1.80;0.77;;;;;;;;;;4969771;28;20363;-67
2022/09/28 13:03:56;;;;;;;1.52;0.90;;;;;;;;;;4987357;28;20451;-67
2022/09/28 13:06:52;;;;;;;3.72;1.30;;;;;;;;;;4987885;28;20379;-67
2022/09/28 13:09:22;;;;;;;1.77;1.10;;;;;;;;;;4987503;28;20466;-67
2022/09/28 13:12:17;;;;;;;2.67;1.55;;;;;;;;;;4950333;28;20498;-67
2022/09/28 13:15:14;;;;;;;2.47;1.40;;;;;;;;;;4968343;28;20454;-67
2022/09/28 13:17:59;;;;;;;1.73;0.90;;;;;;;;;;4968580;28;20454;-67
2022/09/28 13:20:38;;;;;;;2.65;1.30;;;;;;;;;;4968009;28;20380;-67
2022/09/28 13:23:13;;;;;;;;;;;;;;;;;;4968487;28;20452;-67
2022/09/28 13:25:53;;;;;;;1.88;1.08;;;;;;;;;;4968076;28;19913;-67
2022/09/28 13:28:20;;;;;;;3.53;1.50;;;;;;;;;;4966556;28;20451;-67
2022/09/28 13:30:46;;;;;;;3.05;1.40;;;;;;;;;;4949578;28;20033;-67
2022/09/28 13:33:18;;;;;;;4.18;1.45;;;;;;;;;;4967414;28;20440;-67
2022/09/28 13:35:43;;;;;;;2.53;1.35;;;;;;;;;;4949895;28;20364;-67
2022/09/28 13:38:17;;;;;;;2.95;1.40;;;;;;;;;;4971713;28;20314;-67
2022/09/28 13:41:04;;;;;;;2.47;1.50;;;;;;;;;;4971391;28;20432;-67
2022/09/28 13:44:06;;;;;;;3.95;1.50;;;;;;;;;;4972653;28;20033;-67
2022/09/28 13:46:32;;;;;;;1.88;1.10;;;;;;;;;;4972382;28;20068;-67
2022/09/28 13:48:57;;;;;;;2.47;1.30;;;;;;;;;;4971293;28;20460;-67
2022/09/28 13:51:47;;;;;;;3.53;1.40;;;;;;;;;;4971261;28;20057;-67
2022/09/28 13:54:24;;;;;;;1.88;1.30;;;;;;;;;;4971435;28;20056;-67
2022/09/28 13:57:01;;;;;;;4.03;1.73;;;;;;;;;;4971099;28;20428;-67
2022/09/28 13:59:28;;;;;;;2.10;1.27;;;;;;;;;;4971131;28;20344;-67
2022/09/28 14:02:29;;;;;;;2.70;1.73;;;;;;;;;;4953388;28;20056;-67
2022/09/28 14:05:00;;;;;;;2.38;1.20;;;;;;;;;;4956676;28;20436;-67
2022/09/28 14:07:55;;;;;;;1.83;1.10;;;;;;;;;;4971087;28;20448;-67
2022/09/28 14:10:24;;;;;;;3.67;1.25;;;;;;;;;;4943852;28;20538;-67
2022/09/28 14:12:51;;;;;;;4.78;1.52;;;;;;;;;;4991420;28;20309;-67
2022/09/28 14:15:28;;;;;;;3.67;1.52;;;;;;;;;;4991417;28;20528;-67
2022/09/28 14:18:00;;;;;;;1.88;1.00;;;;;;;;;;4990638;28;20463;-67
2022/09/28 14:20:26;;;;;;;1.98;1.35;;;;;;;;;;4972714;28;20471;-67
2022/09/28 14:23:09;;;;;;;2.58;1.30;;;;;;;;;;4972163;28;20479;-67
2022/09/28 14:25:45;;;;;;;2.70;1.27;;;;;;;;;;4972342;28;20475;-67
2022/09/28 14:28:54;;;;;;;3.30;1.88;;;;;;;;;;4972642;28;20455;-67
2022/09/28 14:31:28;;;;;;;4.55;1.55;;;;;;;;;;4944918;28;20534;-67
2022/09/28 14:33:58;;;;;;;1.92;1.23;;;;;;;;;;4972358;28;20434;-67
2022/09/28 14:42:11;;;;;;;;;;;;;;;;;;4975016;28;20525;-67
2022/09/28 14:45:01;;;;;;;1.85;1.13;;;;;;;;;;4972405;28;20259;-67
2022/09/28 14:47:41;;;;;;;2.83;1.38;;;;;;;;;;4972722;28;20352;-67
2022/09/28 14:50:19;;;;;;;2.75;1.35;;;;;;;;;;4989694;28;20048;-67
2022/09/28 14:52:48;;;;;;;1.95;1.20;;;;;;;;;;4989915;28;20506;-68
2022/09/28 14:55:15;;;;;;;2.15;1.27;;;;;;;;;;4989904;28;20439;-67
2022/09/28 14:57:40;;;;;;;3.20;1.40;;;;;;;;;;4971957;28;20432;-67
2022/09/28 15:00:19;;;;;;;2.13;1.17;;;;;;;;;;4971827;28;20466;-67
2022/09/28 15:02:51;;;;;;;3.42;1.25;;;;;;;;;;4972304;28;20459;-67
2022/09/28 15:05:27;;;;;;;1.55;1.20;;;;;;;;;;4972006;28;20396;-67
2022/09/28 15:07:53;;;;;;;2.83;1.13;;;;;;;;;;4955546;28;20373;-67
2022/09/28 15:10:30;;;;;;;5.60;1.23;;;;;;;;;;4981058;28;20084;-67
2022/09/28 15:12:57;;;;;;;3.00;1.20;;;;;;;;;;4971697;28;20447;-67
2022/09/28 15:15:29;;;;;;;4.78;1.13;;;;;;;;;;4991387;28;20504;-67
2022/09/28 15:18:03;;;;;;;2.17;1.02;;;;;;;;;;4971815;28;20452;-67
2022/09/28 15:20:36;;;;;;;2.22;1.05;;;;;;;;;;4989422;28;20340;-67
2022/09/28 15:23:02;;;;;;;3.95;0.98;;;;;;;;;;4989291;28;20392;-67